createdAt,value
2018-11-04T00:00:17.869Z,10.80
2018-11-04T00:02:46.684Z,10.82
2018-11-04T00:05:15.526Z,10.79
2018-11-04T00:07:44.071Z,10.78
2018-11-04T00:10:12.646Z,10.78
2018-11-04T00:12:41.041Z,10.78
2018-11-04T00:15:10.534Z,10.78
2018-11-04T00:17:39.313Z,10.78
2018-11-04T00:20:10.896Z,10.78
2018-11-04T00:22:39.201Z,10.76
2018-11-04T00:25:08.728Z,10.76
2018-11-04T00:27:36.913Z,10.74
2018-11-04T00:30:05.884Z,10.73
2018-11-04T00:32:34.041Z,10.72
2018-11-04T00:35:02.268Z,10.76
2018-11-04T00:37:30.429Z,10.78
2018-11-04T00:39:58.656Z,10.73
2018-11-04T00:42:26.840Z,10.73
2018-11-04T00:44:55.009Z,10.70
2018-11-04T00:47:23.189Z,10.76
2018-11-04T00:49:51.362Z,10.80
2018-11-04T00:52:19.591Z,10.80
2018-11-04T00:54:47.771Z,10.73
2018-11-04T00:57:16.259Z,10.71
2018-11-04T00:59:44.462Z,10.72
2018-11-04T01:02:12.629Z,10.72
2018-11-04T01:04:40.824Z,10.72
2018-11-04T01:07:09.211Z,10.72
2018-11-04T01:09:37.465Z,10.73
2018-11-04T01:12:05.881Z,10.70
2018-11-04T01:14:34.065Z,10.69
2018-11-04T01:17:02.351Z,10.68
2018-11-04T01:19:30.576Z,10.69
2018-11-04T01:21:58.845Z,10.69
2018-11-04T01:24:27.092Z,10.68
2018-11-04T01:26:55.549Z,10.70
2018-11-04T01:29:23.781Z,10.72
2018-11-04T01:31:52.056Z,10.69
2018-11-04T01:34:20.216Z,10.69
2018-11-04T01:36:48.393Z,10.74
2018-11-04T01:39:16.874Z,10.72
2018-11-04T01:41:45.049Z,10.70
2018-11-04T01:44:16.214Z,10.72
2018-11-04T01:46:44.474Z,10.69
2018-11-04T01:49:12.656Z,10.73
2018-11-04T01:51:40.825Z,10.73
2018-11-04T01:54:09.014Z,10.73
2018-11-04T01:56:37.269Z,10.73
2018-11-04T01:59:05.873Z,10.69
2018-11-04T02:01:34.150Z,10.71
2018-11-04T02:04:02.298Z,10.69
2018-11-04T02:06:30.480Z,10.67
2018-11-04T02:08:58.681Z,10.68
2018-11-04T02:11:26.937Z,10.65
2018-11-04T02:13:55.266Z,10.66
2018-11-04T02:16:23.438Z,10.67
2018-11-04T02:18:51.591Z,10.66
2018-11-04T02:21:19.837Z,10.66
2018-11-04T02:23:48.030Z,10.68
2018-11-04T02:26:16.181Z,10.68
2018-11-04T02:28:44.433Z,10.68
2018-11-04T02:31:12.649Z,10.71
2018-11-04T02:33:40.937Z,10.71
2018-11-04T02:36:09.196Z,10.69
2018-11-04T02:38:37.358Z,10.71
2018-11-04T02:41:06.242Z,10.70
2018-11-04T02:43:34.385Z,10.71
2018-11-04T02:46:02.615Z,10.69
2018-11-04T02:48:30.781Z,10.66
2018-11-04T02:50:58.929Z,10.69
2018-11-04T02:53:27.117Z,10.67
2018-11-04T02:55:56.791Z,10.65
2018-11-04T02:58:24.943Z,10.69
2018-11-04T03:00:53.190Z,10.65
2018-11-04T03:03:21.344Z,10.63
2018-11-04T03:05:49.542Z,10.67
2018-11-04T03:08:17.706Z,10.70
2018-11-04T03:10:45.872Z,10.67
2018-11-04T03:13:14.032Z,10.67
2018-11-04T03:15:42.341Z,10.64
2018-11-04T03:18:10.533Z,10.63
2018-11-04T03:20:38.689Z,10.71
2018-11-04T03:23:07.229Z,10.67
2018-11-04T03:25:35.389Z,10.65
2018-11-04T03:28:03.602Z,10.66
2018-11-04T03:30:32.037Z,10.64
2018-11-04T03:33:00.194Z,10.59
2018-11-04T03:35:28.354Z,10.63
2018-11-04T03:37:56.517Z,10.64
2018-11-04T03:40:24.913Z,10.64
2018-11-04T03:42:53.073Z,10.67
2018-11-04T03:45:21.348Z,10.63
2018-11-04T03:47:49.607Z,10.60
2018-11-04T03:50:17.761Z,10.61
2018-11-04T03:52:45.939Z,10.66
2018-11-04T03:55:14.228Z,10.66
2018-11-04T03:57:42.400Z,10.66
2018-11-04T04:00:11.884Z,10.66
2018-11-04T04:02:40.458Z,10.69
2018-11-04T04:05:09.646Z,10.65
2018-11-04T04:07:37.820Z,10.62
2018-11-04T04:10:06.758Z,10.62
2018-11-04T04:12:34.946Z,10.64
2018-11-04T04:15:03.118Z,10.65
2018-11-04T04:17:31.278Z,10.61
2018-11-04T04:19:59.434Z,10.63
2018-11-04T04:22:27.606Z,10.60
2018-11-04T04:24:55.776Z,10.58
2018-11-04T04:27:23.923Z,10.56
2018-11-04T04:29:52.218Z,10.50
2018-11-04T04:32:20.573Z,10.48
2018-11-04T04:34:48.737Z,10.48
2018-11-04T04:37:16.997Z,10.56
2018-11-04T04:39:45.159Z,10.52
2018-11-04T04:42:13.323Z,10.48
2018-11-04T04:44:41.515Z,10.50
2018-11-04T04:47:09.808Z,10.50
2018-11-04T04:49:37.961Z,10.52
2018-11-04T04:52:06.615Z,10.55
2018-11-04T04:54:34.713Z,10.53
2018-11-04T04:57:03.260Z,10.51
2018-11-04T04:59:31.490Z,10.49
2018-11-04T05:01:59.649Z,10.52
2018-11-04T05:04:27.940Z,10.48
2018-11-04T05:06:56.118Z,10.54
2018-11-04T05:09:24.531Z,10.49
2018-11-04T05:11:52.695Z,10.50
2018-11-04T05:14:20.942Z,10.58
2018-11-04T05:16:49.205Z,10.57
2018-11-04T05:19:17.365Z,10.54
2018-11-04T05:21:45.561Z,10.54
2018-11-04T05:24:13.723Z,10.56
2018-11-04T05:26:42.004Z,10.53
2018-11-04T05:29:10.167Z,10.51
2018-11-04T05:31:38.349Z,10.51
2018-11-04T05:34:06.885Z,10.47
2018-11-04T05:36:35.363Z,10.51
2018-11-04T05:39:04.791Z,10.51
2018-11-04T05:41:32.951Z,10.49
2018-11-04T05:44:01.206Z,10.51
2018-11-04T05:46:29.387Z,10.50
2018-11-04T05:48:57.621Z,10.49
2018-11-04T05:51:25.821Z,10.45
2018-11-04T05:53:53.985Z,10.49
2018-11-04T05:56:22.235Z,10.44
2018-11-04T05:58:50.494Z,10.42
2018-11-04T06:01:18.689Z,10.34
2018-11-04T06:03:46.857Z,10.39
2018-11-04T06:06:15.049Z,10.40
2018-11-04T06:08:43.205Z,10.39
2018-11-04T06:11:11.396Z,10.39
2018-11-04T06:13:39.569Z,10.38
2018-11-04T06:16:08.107Z,10.42
2018-11-04T06:18:36.320Z,10.43
2018-11-04T06:21:04.607Z,10.40
2018-11-04T06:23:32.754Z,10.44
2018-11-04T06:26:00.912Z,10.48
2018-11-04T06:28:29.216Z,10.60
2018-11-04T06:30:57.388Z,10.61
2018-11-04T06:33:25.560Z,10.68
2018-11-04T06:35:53.752Z,10.73
2018-11-04T06:38:21.923Z,10.73
2018-11-04T06:40:50.103Z,10.73
2018-11-04T06:43:18.276Z,10.73
2018-11-04T06:45:46.873Z,10.74
2018-11-04T06:48:15.135Z,10.73
2018-11-04T06:50:43.429Z,10.72
2018-11-04T06:53:11.678Z,10.74
2018-11-04T06:55:40.847Z,10.84
2018-11-04T06:58:09.053Z,10.96
2018-11-04T07:00:37.229Z,10.94
2018-11-04T07:03:05.817Z,11.00
2018-11-04T07:05:34.125Z,11.03
2018-11-04T07:08:02.289Z,11.02
2018-11-04T07:10:30.565Z,11.02
2018-11-04T07:12:58.843Z,10.94
2018-11-04T07:15:27.085Z,10.98
2018-11-04T07:17:55.240Z,11.00
2018-11-04T07:20:23.453Z,11.10
2018-11-04T07:22:51.636Z,11.12
2018-11-04T07:25:19.885Z,11.20
2018-11-04T07:27:48.082Z,11.33
2018-11-04T07:30:16.335Z,11.36
2018-11-04T07:32:44.550Z,11.42
2018-11-04T07:35:12.731Z,11.30
2018-11-04T07:37:41.320Z,11.42
2018-11-04T07:40:10.018Z,11.44
2018-11-04T07:42:39.122Z,11.46
2018-11-04T07:45:07.851Z,11.50
2018-11-04T07:47:36.075Z,11.57
2018-11-04T07:50:04.814Z,11.65
2018-11-04T07:52:32.985Z,11.64
2018-11-04T07:55:01.187Z,11.57
2018-11-04T07:57:29.353Z,11.62
2018-11-04T07:59:57.562Z,11.71
2018-11-04T08:02:25.793Z,11.89
2018-11-04T08:04:53.969Z,11.88
2018-11-04T08:07:22.170Z,12.17
2018-11-04T08:09:50.330Z,12.29
2018-11-04T08:12:18.597Z,12.57
2018-11-04T08:14:47.030Z,12.73
2018-11-04T08:17:15.237Z,12.83
2018-11-04T08:19:43.409Z,12.61
2018-11-04T08:22:11.573Z,12.47
2018-11-04T08:24:39.737Z,12.55
2018-11-04T08:27:07.900Z,12.55
2018-11-04T08:29:36.417Z,12.62
2018-11-04T08:32:04.574Z,12.80
2018-11-04T08:34:32.805Z,12.78
2018-11-04T08:37:00.969Z,12.66
2018-11-04T08:39:29.122Z,12.92
2018-11-04T08:41:57.323Z,13.20
2018-11-04T08:44:25.516Z,13.35
2018-11-04T08:46:53.932Z,13.31
2018-11-04T08:49:22.126Z,13.34
2018-11-04T08:51:50.334Z,13.67
2018-11-04T08:54:18.454Z,13.69
2018-11-04T08:56:47.114Z,13.63
2018-11-04T08:59:15.298Z,13.89
2018-11-04T09:01:43.451Z,13.94
2018-11-04T09:04:11.678Z,13.90
2018-11-04T09:06:39.995Z,13.94
2018-11-04T09:09:08.014Z,14.07
2018-11-04T09:11:36.205Z,14.11
2018-11-04T09:14:04.483Z,14.32
2018-11-04T09:16:32.749Z,14.16
2018-11-04T09:19:00.961Z,14.11
2018-11-04T09:21:29.210Z,14.28
2018-11-04T09:23:57.417Z,14.47
2018-11-04T09:26:25.648Z,14.33
2018-11-04T09:28:53.979Z,14.38
2018-11-04T09:31:22.501Z,13.94
2018-11-04T09:33:50.699Z,13.79
2018-11-04T09:36:19.191Z,13.62
2018-11-04T09:38:47.129Z,13.43
2018-11-04T09:41:15.327Z,13.39
2018-11-04T09:43:43.923Z,13.50
2018-11-04T09:46:12.328Z,13.59
2018-11-04T09:48:40.497Z,13.76
2018-11-04T09:51:08.654Z,13.99
2018-11-04T09:53:37.151Z,14.33
2018-11-04T09:56:05.697Z,14.73
2018-11-04T09:58:34.019Z,15.20
2018-11-04T10:01:02.370Z,15.21
2018-11-04T10:03:31.016Z,15.42
2018-11-04T10:05:59.324Z,15.63
2018-11-04T10:08:27.502Z,15.53
2018-11-04T10:10:55.934Z,15.40
2018-11-04T10:13:24.210Z,15.28
2018-11-04T10:15:52.305Z,15.10
2018-11-04T10:18:20.494Z,15.22
2018-11-04T10:20:49.300Z,15.11
2018-11-04T10:23:17.237Z,15.43
2018-11-04T10:25:45.560Z,15.63
2018-11-04T10:28:13.709Z,15.79
2018-11-04T10:30:41.930Z,15.84
2018-11-04T10:33:10.085Z,15.82
2018-11-04T10:35:38.305Z,15.92
2018-11-04T10:38:06.561Z,16.21
2018-11-04T10:40:34.737Z,16.03
2018-11-04T10:43:02.973Z,15.96
2018-11-04T10:45:31.198Z,16.18
2018-11-04T10:47:59.714Z,16.05
2018-11-04T10:50:27.880Z,16.12
2018-11-04T10:52:56.156Z,15.74
2018-11-04T10:55:24.424Z,15.88
2018-11-04T10:57:52.674Z,15.76
2018-11-04T11:00:26.060Z,15.78
2018-11-04T11:02:54.256Z,15.57
2018-11-04T11:05:23.996Z,15.06
2018-11-04T11:07:52.276Z,15.04
2018-11-04T11:10:20.460Z,14.93
2018-11-04T11:12:48.628Z,14.93
2018-11-04T11:15:16.902Z,15.02
2018-11-04T11:17:45.139Z,15.52
2018-11-04T11:20:13.470Z,15.73
2018-11-04T11:22:42.246Z,15.80
2018-11-04T11:25:10.902Z,15.22
2018-11-04T11:27:39.466Z,15.09
2018-11-04T11:30:08.097Z,15.16
2018-11-04T11:32:36.219Z,15.15
2018-11-04T11:35:04.553Z,15.10
2018-11-04T11:37:32.838Z,15.16
2018-11-04T11:40:00.958Z,15.28
2018-11-04T11:42:29.145Z,15.62
2018-11-04T11:44:57.502Z,15.75
2018-11-04T11:47:25.693Z,15.57
2018-11-04T11:49:53.953Z,15.47
2018-11-04T11:52:22.186Z,15.45
2018-11-04T11:54:50.417Z,15.45
2018-11-04T11:57:18.628Z,15.19
2018-11-04T11:59:46.954Z,15.36
2018-11-04T12:02:15.243Z,15.35
2018-11-04T12:04:43.348Z,15.55
2018-11-04T12:07:11.632Z,15.71
2018-11-04T12:09:39.791Z,16.37
2018-11-04T12:12:08.045Z,16.54
2018-11-04T12:14:36.294Z,16.99
2018-11-04T12:17:04.461Z,17.03
2018-11-04T12:19:32.652Z,17.30
2018-11-04T12:22:00.882Z,17.21
2018-11-04T12:24:29.382Z,17.28
2018-11-04T12:26:57.574Z,17.53
2018-11-04T12:29:25.762Z,17.57
2018-11-04T12:31:53.992Z,17.83
2018-11-04T12:34:22.172Z,17.75
2018-11-04T12:36:50.390Z,17.51
2018-11-04T12:39:18.562Z,16.57
2018-11-04T12:41:46.732Z,16.67
2018-11-04T12:44:14.914Z,16.44
2018-11-04T12:46:43.172Z,16.24
2018-11-04T12:49:11.336Z,16.14
2018-11-04T12:51:39.531Z,16.12
2018-11-04T12:54:07.874Z,15.99
2018-11-04T12:56:36.065Z,15.94
2018-11-04T12:59:04.625Z,15.73
2018-11-04T13:01:32.843Z,15.52
2018-11-04T13:04:01.070Z,15.71
2018-11-04T13:06:29.243Z,16.10
2018-11-04T13:08:57.410Z,16.48
2018-11-04T13:11:25.603Z,17.24
2018-11-04T13:13:53.837Z,19.55
2018-11-04T13:16:22.191Z,20.50
2018-11-04T13:18:50.369Z,20.11
2018-11-04T13:21:18.704Z,20.64
2018-11-04T13:23:46.969Z,20.58
2018-11-04T13:26:15.129Z,19.65
2018-11-04T13:28:43.381Z,19.30
2018-11-04T13:31:11.632Z,18.20
2018-11-04T13:33:39.811Z,17.96
2018-11-04T13:36:08.084Z,18.32
2018-11-04T13:38:36.160Z,17.71
2018-11-04T13:41:04.508Z,17.52
2018-11-04T13:43:32.708Z,17.11
2018-11-04T13:46:01.108Z,16.74
2018-11-04T13:48:29.600Z,16.44
2018-11-04T13:50:57.856Z,15.96
2018-11-04T13:53:26.101Z,15.72
2018-11-04T13:55:55.395Z,15.59
2018-11-04T13:58:23.656Z,15.29
2018-11-04T14:00:51.829Z,15.16
2018-11-04T14:03:20.105Z,14.81
2018-11-04T14:05:48.339Z,14.59
2018-11-04T14:08:16.508Z,14.58
2018-11-04T14:10:44.778Z,14.52
2018-11-04T14:13:12.974Z,14.58
2018-11-04T14:15:41.176Z,14.75
2018-11-04T14:18:09.350Z,14.90
2018-11-04T14:20:37.623Z,14.94
2018-11-04T14:23:06.068Z,15.01
2018-11-04T14:25:34.231Z,14.88
2018-11-04T14:28:02.443Z,14.78
2018-11-04T14:30:30.882Z,14.77
2018-11-04T14:32:59.166Z,14.78
2018-11-04T14:35:27.374Z,14.74
2018-11-04T14:37:55.617Z,14.70
2018-11-04T14:40:23.792Z,14.63
2018-11-04T14:42:52.011Z,14.46
2018-11-04T14:45:20.196Z,14.43
2018-11-04T14:47:48.415Z,14.45
2018-11-04T14:50:18.437Z,14.45
2018-11-04T14:52:47.114Z,14.31
2018-11-04T14:55:15.285Z,14.08
2018-11-04T14:57:43.469Z,13.96
2018-11-04T15:00:15.339Z,13.77
2018-11-04T15:02:43.619Z,13.64
2018-11-04T15:05:11.981Z,13.51
2018-11-04T15:07:40.246Z,13.37
2018-11-04T15:10:10.347Z,13.31
2018-11-04T15:12:38.536Z,13.18
2018-11-04T15:15:08.357Z,13.21
2018-11-04T15:17:36.858Z,13.06
2018-11-04T15:20:06.038Z,12.97
2018-11-04T15:22:34.228Z,12.86
2018-11-04T15:25:02.498Z,12.76
2018-11-04T15:27:30.702Z,12.55
2018-11-04T15:29:58.886Z,12.45
2018-11-04T15:32:27.388Z,12.34
2018-11-04T15:34:55.590Z,12.33
2018-11-04T15:37:23.884Z,12.15
2018-11-04T15:39:53.414Z,12.07
2018-11-04T15:42:21.751Z,11.94
2018-11-04T15:44:49.926Z,11.81
2018-11-04T15:47:18.138Z,11.71
2018-11-04T15:49:46.329Z,11.68
2018-11-04T15:52:14.523Z,11.65
2018-11-04T15:54:42.751Z,11.53
2018-11-04T15:57:16.523Z,11.40
2018-11-04T15:59:45.174Z,11.32
2018-11-04T16:02:15.057Z,11.32
2018-11-04T16:04:45.121Z,11.23
2018-11-04T16:07:12.329Z,11.16
2018-11-04T16:09:40.505Z,11.11
2018-11-04T16:12:09.539Z,11.06
2018-11-04T16:14:39.041Z,10.98
2018-11-04T16:17:07.243Z,10.93
2018-11-04T16:19:35.532Z,10.83
2018-11-04T16:22:03.965Z,10.80
2018-11-04T16:24:33.297Z,10.72
2018-11-04T16:27:01.570Z,10.68
2018-11-04T16:29:30.057Z,10.64
2018-11-04T16:31:59.092Z,10.59
2018-11-04T16:34:27.319Z,10.54
2018-11-04T16:36:55.692Z,10.49
2018-11-04T16:39:23.852Z,10.49
2018-11-04T16:41:52.045Z,10.49
2018-11-04T16:44:20.447Z,10.45
2018-11-04T16:46:48.505Z,10.44
2018-11-04T16:49:16.663Z,10.44
2018-11-04T16:51:44.857Z,10.41
2018-11-04T16:54:13.077Z,10.35
2018-11-04T16:56:41.237Z,10.34
2018-11-04T16:59:09.425Z,10.29
2018-11-04T17:01:37.594Z,10.33
2018-11-04T17:04:05.913Z,10.29
2018-11-04T17:06:34.020Z,10.23
2018-11-04T17:09:02.158Z,10.18
2018-11-04T17:11:30.411Z,10.18
2018-11-04T17:13:58.543Z,10.14
2018-11-04T17:16:26.791Z,10.13
2018-11-04T17:18:54.955Z,10.07
2018-11-04T17:21:23.149Z,10.07
2018-11-04T17:23:51.455Z,10.11
2018-11-04T17:26:19.677Z,10.20
2018-11-04T17:28:47.879Z,10.24
2018-11-04T17:31:16.045Z,10.28
2018-11-04T17:33:44.397Z,10.32
2018-11-04T17:36:12.772Z,10.29
2018-11-04T17:38:40.849Z,10.28
2018-11-04T17:41:09.025Z,10.30
2018-11-04T17:43:37.210Z,10.36
2018-11-04T17:46:05.888Z,10.43
2018-11-04T17:48:34.464Z,10.51
2018-11-04T17:51:02.670Z,10.56
2018-11-04T17:53:30.922Z,10.63
2018-11-04T17:56:01.506Z,10.70
2018-11-04T17:58:29.725Z,10.74
2018-11-04T18:00:58.004Z,10.79
2018-11-04T18:03:26.185Z,10.89
2018-11-04T18:05:54.451Z,10.92
2018-11-04T18:08:22.654Z,10.98
2018-11-04T18:10:50.778Z,10.97
2018-11-04T18:13:19.005Z,11.00
2018-11-04T18:15:47.250Z,11.02
2018-11-04T18:18:15.463Z,11.05
2018-11-04T18:20:43.637Z,11.09
2018-11-04T18:23:11.797Z,11.11
2018-11-04T18:25:40.055Z,11.10
2018-11-04T18:28:08.233Z,11.11
2018-11-04T18:30:36.500Z,11.09
2018-11-04T18:33:04.978Z,11.07
2018-11-04T18:35:33.166Z,11.10
2018-11-04T18:38:01.666Z,11.08
2018-11-04T18:40:30.734Z,11.11
2018-11-04T18:42:59.059Z,11.11
2018-11-04T18:45:27.302Z,11.14
2018-11-04T18:47:55.481Z,11.14
2018-11-04T18:50:23.816Z,11.26
2018-11-04T18:52:52.709Z,11.20
2018-11-04T18:55:20.750Z,11.14
2018-11-04T18:57:48.934Z,11.25
2018-11-04T19:00:18.526Z,11.44
2018-11-04T19:02:47.446Z,11.38
2018-11-04T19:05:15.664Z,11.36
2018-11-04T19:07:43.989Z,11.33
2018-11-04T19:10:17.003Z,11.25
2018-11-04T19:12:45.221Z,11.19
2018-11-04T19:15:13.674Z,11.12
2018-11-04T19:17:41.893Z,11.07
2018-11-04T19:20:11.910Z,11.07
2018-11-04T19:22:40.151Z,11.15
2018-11-04T19:25:09.621Z,11.20
2018-11-04T19:27:37.833Z,11.21
2018-11-04T19:30:07.645Z,11.19
2018-11-04T19:32:35.866Z,11.18
2018-11-04T19:35:04.196Z,11.16
2018-11-04T19:37:32.407Z,11.26
2018-11-04T19:40:00.625Z,11.20
2018-11-04T19:42:29.059Z,11.13
2018-11-04T19:44:57.137Z,11.09
2018-11-04T19:47:25.365Z,11.02
2018-11-04T19:49:53.641Z,11.06
2018-11-04T19:52:22.015Z,11.05
2018-11-04T19:54:50.319Z,10.99
2018-11-04T19:57:18.551Z,10.89
2018-11-04T19:59:46.758Z,10.83
2018-11-04T20:02:15.062Z,10.76
2018-11-04T20:04:43.337Z,10.66
2018-11-04T20:07:11.458Z,10.54
2018-11-04T20:09:39.749Z,10.41
2018-11-04T20:12:12.160Z,10.31
2018-11-04T20:14:40.400Z,10.21
2018-11-04T20:17:08.585Z,10.17
2018-11-04T20:19:42.291Z,10.05
2018-11-04T20:22:10.533Z,9.88
2018-11-04T20:24:44.101Z,9.75
2018-11-04T20:27:12.333Z,9.67
2018-11-04T20:29:40.529Z,9.68
2018-11-04T20:32:14.006Z,9.59
2018-11-04T20:34:42.214Z,9.62
2018-11-04T20:37:10.385Z,9.70
2018-11-04T20:39:43.953Z,9.65
2018-11-04T20:42:12.225Z,9.52
2018-11-04T20:44:46.470Z,9.42
2018-11-04T20:47:15.059Z,9.33
2018-11-04T20:49:48.997Z,9.25
2018-11-04T20:52:17.862Z,9.20
2018-11-04T20:54:46.174Z,9.16
2018-11-04T20:57:19.649Z,9.11
2018-11-04T20:59:47.860Z,9.05
2018-11-04T21:02:16.672Z,8.98
2018-11-04T21:04:44.775Z,8.85
2018-11-04T21:07:12.958Z,8.76
2018-11-04T21:09:41.132Z,8.69
2018-11-04T21:12:09.386Z,8.60
2018-11-04T21:14:37.587Z,8.58
2018-11-04T21:17:06.184Z,8.54
2018-11-04T21:19:34.381Z,8.52
2018-11-04T21:22:02.554Z,8.49
2018-11-04T21:24:31.111Z,8.46
2018-11-04T21:26:59.321Z,8.42
2018-11-04T21:29:27.872Z,8.42
2018-11-04T21:31:55.757Z,8.42
2018-11-04T21:34:23.945Z,8.42
2018-11-04T21:36:52.129Z,8.42
2018-11-04T21:39:21.281Z,8.49
2018-11-04T21:41:49.473Z,8.44
2018-11-04T21:44:18.478Z,8.38
2018-11-04T21:46:46.526Z,8.38
2018-11-04T21:49:14.775Z,8.36
2018-11-04T21:51:43.417Z,8.34
2018-11-04T21:54:11.653Z,8.38
2018-11-04T21:56:39.968Z,8.36
2018-11-04T21:59:07.685Z,8.31
2018-11-04T22:01:35.857Z,8.30
2018-11-04T22:04:04.163Z,8.33
2018-11-04T22:06:33.958Z,8.27
2018-11-04T22:09:02.240Z,8.25
2018-11-04T22:11:30.438Z,8.26
2018-11-04T22:13:58.789Z,8.19
2018-11-04T22:16:26.922Z,8.18
2018-11-04T22:18:55.153Z,8.09
2018-11-04T22:21:23.322Z,8.03
2018-11-04T22:23:51.488Z,7.97
2018-11-04T22:26:20.024Z,7.90
2018-11-04T22:28:48.614Z,7.91
2018-11-04T22:31:16.866Z,7.88
2018-11-04T22:33:45.893Z,7.87
2018-11-04T22:36:14.102Z,7.84
2018-11-04T22:38:42.606Z,7.84
2018-11-04T22:41:10.780Z,7.85
2018-11-04T22:43:39.053Z,7.90
2018-11-04T22:46:07.301Z,7.91
2018-11-04T22:48:35.495Z,7.95
2018-11-04T22:51:03.811Z,7.95
2018-11-04T22:53:32.033Z,7.98
2018-11-04T22:56:02.346Z,7.98
2018-11-04T22:58:30.537Z,7.96
2018-11-04T23:00:58.693Z,7.95
2018-11-04T23:03:27.003Z,7.95
2018-11-04T23:05:55.265Z,7.96
2018-11-04T23:08:23.461Z,7.94
2018-11-04T23:10:51.713Z,7.92
2018-11-04T23:13:19.876Z,7.92
2018-11-04T23:15:48.081Z,7.91
2018-11-04T23:18:16.341Z,7.85
2018-11-04T23:20:44.615Z,7.83
2018-11-04T23:23:12.785Z,7.78
2018-11-04T23:25:41.132Z,7.76
2018-11-04T23:28:09.348Z,7.73
2018-11-04T23:30:37.543Z,7.66
2018-11-04T23:33:05.730Z,7.62
2018-11-04T23:35:33.960Z,7.62
2018-11-04T23:38:02.133Z,7.57
2018-11-04T23:40:30.758Z,7.55
2018-11-04T23:42:58.999Z,7.48
2018-11-04T23:45:27.167Z,7.43
2018-11-04T23:47:55.344Z,7.39
2018-11-04T23:50:23.825Z,7.38
2018-11-04T23:52:52.012Z,7.37
2018-11-04T23:55:20.314Z,7.35
2018-11-04T23:57:48.557Z,7.31
